Kanaskat, Washington
Current Conditions -  °F | °C
As of 1:53 PM on Friday 31 Oct 2014 (Local Time) from KRNT Reporting Station
Overcast Overcast  
Wind Chill: 12°   Ceiling: 7000
Heat Index: 12°   Visibility: 10mi
Dew Point: 10°   Wind: 6mph
Humidity: 89%   Direction: 140°SE
Pressure: 29.82"   Gusts: NA
Location:  47.3777°N, 121.913°W
Report Text: KRNT 312053Z 14005KT 10SM SCT016 BKN070 OVC090 12/10 A2982 RMK AO2 RAB20E44 SLP104 P0000 60006 T01170100 51006
Loading
Personal Weather Stations






























Interactive Weather Map
Tropical Storm Tracking
New forecast layout! Learn more

10-Day Weather Forecast

Advertisements
Track Severe Weather on mobile